sensor_id;sensor_type;location;lat;lon;timestamp;temperature;humidity
7216;DHT22;3649;48.798;9.798;2023-08-08T00:01:49;16.70;99.90
7216;DHT22;3649;48.798;9.798;2023-08-08T00:04:16;16.60;99.90
7216;DHT22;3649;48.798;9.798;2023-08-08T00:06:45;16.70;99.90
7216;DHT22;3649;48.798;9.798;2023-08-08T00:09:12;16.60;99.90
7216;DHT22;3649;48.798;9.798;2023-08-08T00:11:40;16.60;99.90
7216;DHT22;3649;48.798;9.798;2023-08-08T00:14:07;16.60;99.90
7216;DHT22;3649;48.798;9.798;2023-08-08T00:16:34;16.60;99.90
7216;DHT22;3649;48.798;9.798;2023-08-08T00:19:01;16.60;99.90
7216;DHT22;3649;48.798;9.798;2023-08-08T00:21:28;16.60;99.90
7216;DHT22;3649;48.798;9.798;2023-08-08T00:23:55;16.60;99.90
7216;DHT22;3649;48.798;9.798;2023-08-08T00:26:21;16.60;99.90
7216;DHT22;3649;48.798;9.798;2023-08-08T00:28:48;16.60;99.90
7216;DHT22;3649;48.798;9.798;2023-08-08T00:31:15;16.60;99.90
7216;DHT22;3649;48.798;9.798;2023-08-08T00:33:44;16.60;99.90
7216;DHT22;3649;48.798;9.798;2023-08-08T00:36:11;16.60;99.90
7216;DHT22;3649;48.798;9.798;2023-08-08T00:38:38;16.60;99.90
7216;DHT22;3649;48.798;9.798;2023-08-08T00:41:05;16.60;99.90
7216;DHT22;3649;48.798;9.798;2023-08-08T00:43:32;16.50;99.90
7216;DHT22;3649;48.798;9.798;2023-08-08T00:45:59;16.50;99.90
7216;DHT22;3649;48.798;9.798;2023-08-08T00:48:26;16.50;99.90
7216;DHT22;3649;48.798;9.798;2023-08-08T00:50:53;16.60;99.90
7216;DHT22;3649;48.798;9.798;2023-08-08T00:53:21;16.50;99.90
7216;DHT22;3649;48.798;9.798;2023-08-08T00:55:49;16.50;99.90
7216;DHT22;3649;48.798;9.798;2023-08-08T00:58:17;16.50;99.90
7216;DHT22;3649;48.798;9.798;2023-08-08T01:00:44;16.50;99.90
7216;DHT22;3649;48.798;9.798;2023-08-08T01:03:11;16.40;99.90
7216;DHT22;3649;48.798;9.798;2023-08-08T01:05:43;16.40;99.90
7216;DHT22;3649;48.798;9.798;2023-08-08T01:08:16;16.30;99.90
7216;DHT22;3649;48.798;9.798;2023-08-08T01:10:46;16.30;99.90
7216;DHT22;3649;48.798;9.798;2023-08-08T01:13:20;16.30;99.90
7216;DHT22;3649;48.798;9.798;2023-08-08T01:15:50;16.30;99.90
7216;DHT22;3649;48.798;9.798;2023-08-08T01:18:18;16.20;99.90
7216;DHT22;3649;48.798;9.798;2023-08-08T01:20:46;16.30;99.90
7216;DHT22;3649;48.798;9.798;2023-08-08T01:23:46;16.30;99.90
7216;DHT22;3649;48.798;9.798;2023-08-08T01:26:16;16.20;99.90
7216;DHT22;3649;48.798;9.798;2023-08-08T01:28:44;16.30;99.90
7216;DHT22;3649;48.798;9.798;2023-08-08T01:31:10;16.40;99.90
7216;DHT22;3649;48.798;9.798;2023-08-08T01:33:38;16.40;99.90
7216;DHT22;3649;48.798;9.798;2023-08-08T01:36:12;16.40;99.90
7216;DHT22;3649;48.798;9.798;2023-08-08T01:38:44;16.40;99.90
7216;DHT22;3649;48.798;9.798;2023-08-08T01:41:13;16.40;99.90
7216;DHT22;3649;48.798;9.798;2023-08-08T01:43:41;16.30;99.90
7216;DHT22;3649;48.798;9.798;2023-08-08T01:46:08;16.30;99.90
7216;DHT22;3649;48.798;9.798;2023-08-08T01:48:35;16.40;99.90
7216;DHT22;3649;48.798;9.798;2023-08-08T01:51:03;16.30;99.90
7216;DHT22;3649;48.798;9.798;2023-08-08T01:53:29;16.30;99.90
7216;DHT22;3649;48.798;9.798;2023-08-08T01:55:56;16.30;99.90
7216;DHT22;3649;48.798;9.798;2023-08-08T01:58:23;16.40;99.90
7216;DHT22;3649;48.798;9.798;2023-08-08T02:00:50;16.40;99.90
7216;DHT22;3649;48.798;9.798;2023-08-08T02:03:17;16.40;99.90
7216;DHT22;3649;48.798;9.798;2023-08-08T02:05:44;16.40;99.90
7216;DHT22;3649;48.798;9.798;2023-08-08T02:08:14;16.40;99.90
7216;DHT22;3649;48.798;9.798;2023-08-08T02:10:41;16.40;99.90
7216;DHT22;3649;48.798;9.798;2023-08-08T02:13:08;16.40;99.90
7216;DHT22;3649;48.798;9.798;2023-08-08T02:15:35;16.40;99.90
7216;DHT22;3649;48.798;9.798;2023-08-08T02:18:02;16.40;99.90
7216;DHT22;3649;48.798;9.798;2023-08-08T02:20:30;16.40;99.90
7216;DHT22;3649;48.798;9.798;2023-08-08T02:22:57;16.40;99.90
7216;DHT22;3649;48.798;9.798;2023-08-08T02:25:24;16.40;99.90
7216;DHT22;3649;48.798;9.798;2023-08-08T02:27:51;16.30;99.90
7216;DHT22;3649;48.798;9.798;2023-08-08T02:30:18;16.40;99.90
7216;DHT22;3649;48.798;9.798;2023-08-08T02:32:45;16.40;99.90
7216;DHT22;3649;48.798;9.798;2023-08-08T02:35:12;16.40;99.90
7216;DHT22;3649;48.798;9.798;2023-08-08T02:37:39;16.40;99.90
7216;DHT22;3649;48.798;9.798;2023-08-08T02:40:06;16.40;99.90
7216;DHT22;3649;48.798;9.798;2023-08-08T02:42:34;16.40;99.90
7216;DHT22;3649;48.798;9.798;2023-08-08T02:45:01;16.40;99.90
7216;DHT22;3649;48.798;9.798;2023-08-08T02:47:28;16.40;99.90
7216;DHT22;3649;48.798;9.798;2023-08-08T02:49:55;16.40;99.90
7216;DHT22;3649;48.798;9.798;2023-08-08T02:52:22;16.50;99.90
7216;DHT22;3649;48.798;9.798;2023-08-08T02:54:49;16.50;99.90
7216;DHT22;3649;48.798;9.798;2023-08-08T02:57:16;16.50;99.90
7216;DHT22;3649;48.798;9.798;2023-08-08T02:59:43;16.50;99.90
7216;DHT22;3649;48.798;9.798;2023-08-08T03:02:10;16.50;99.90
7216;DHT22;3649;48.798;9.798;2023-08-08T03:04:38;16.50;99.90
7216;DHT22;3649;48.798;9.798;2023-08-08T03:07:05;16.60;99.90
7216;DHT22;3649;48.798;9.798;2023-08-08T03:09:32;16.60;99.90
7216;DHT22;3649;48.798;9.798;2023-08-08T03:11:59;16.60;99.90
7216;DHT22;3649;48.798;9.798;2023-08-08T03:14:27;16.60;99.90
7216;DHT22;3649;48.798;9.798;2023-08-08T03:16:54;16.60;99.90
7216;DHT22;3649;48.798;9.798;2023-08-08T03:19:21;16.70;99.90
7216;DHT22;3649;48.798;9.798;2023-08-08T03:21:48;16.70;99.90
7216;DHT22;3649;48.798;9.798;2023-08-08T03:24:15;16.60;99.90
7216;DHT22;3649;48.798;9.798;2023-08-08T03:26:41;16.50;99.90
7216;DHT22;3649;48.798;9.798;2023-08-08T03:29:08;16.60;99.90
7216;DHT22;3649;48.798;9.798;2023-08-08T03:31:37;16.60;99.90
7216;DHT22;3649;48.798;9.798;2023-08-08T03:34:04;16.50;99.90
7216;DHT22;3649;48.798;9.798;2023-08-08T03:36:31;16.50;99.90
7216;DHT22;3649;48.798;9.798;2023-08-08T03:38:58;16.50;99.90
7216;DHT22;3649;48.798;9.798;2023-08-08T03:41:25;16.40;99.90
7216;DHT22;3649;48.798;9.798;2023-08-08T03:43:52;16.40;99.90
7216;DHT22;3649;48.798;9.798;2023-08-08T03:46:19;16.40;99.90
7216;DHT22;3649;48.798;9.798;2023-08-08T03:48:46;16.40;99.90
7216;DHT22;3649;48.798;9.798;2023-08-08T03:51:13;16.40;99.90
7216;DHT22;3649;48.798;9.798;2023-08-08T03:53:40;16.40;99.90
7216;DHT22;3649;48.798;9.798;2023-08-08T03:56:07;16.40;99.90
7216;DHT22;3649;48.798;9.798;2023-08-08T03:58:34;16.40;99.90
7216;DHT22;3649;48.798;9.798;2023-08-08T04:01:01;16.40;99.90
7216;DHT22;3649;48.798;9.798;2023-08-08T04:03:28;16.40;99.90
7216;DHT22;3649;48.798;9.798;2023-08-08T04:05:55;16.40;99.90
7216;DHT22;3649;48.798;9.798;2023-08-08T04:08:22;16.40;99.90
7216;DHT22;3649;48.798;9.798;2023-08-08T04:10:49;16.50;99.90
7216;DHT22;3649;48.798;9.798;2023-08-08T04:13:15;16.50;99.90
7216;DHT22;3649;48.798;9.798;2023-08-08T04:15:43;16.50;99.90
7216;DHT22;3649;48.798;9.798;2023-08-08T04:18:11;16.40;99.90
7216;DHT22;3649;48.798;9.798;2023-08-08T04:20:38;16.40;99.90
7216;DHT22;3649;48.798;9.798;2023-08-08T04:23:05;16.40;99.90
7216;DHT22;3649;48.798;9.798;2023-08-08T04:25:32;16.40;99.90
7216;DHT22;3649;48.798;9.798;2023-08-08T04:27:59;16.40;99.90
7216;DHT22;3649;48.798;9.798;2023-08-08T04:30:26;16.40;99.90
7216;DHT22;3649;48.798;9.798;2023-08-08T04:32:53;16.40;99.90
7216;DHT22;3649;48.798;9.798;2023-08-08T04:35:20;16.30;99.90
7216;DHT22;3649;48.798;9.798;2023-08-08T04:37:47;16.40;99.90
7216;DHT22;3649;48.798;9.798;2023-08-08T04:40:14;16.40;99.90
7216;DHT22;3649;48.798;9.798;2023-08-08T04:42:41;16.50;99.90
7216;DHT22;3649;48.798;9.798;2023-08-08T04:45:08;16.50;99.90
7216;DHT22;3649;48.798;9.798;2023-08-08T04:47:35;16.50;99.90
7216;DHT22;3649;48.798;9.798;2023-08-08T04:50:02;16.50;99.90
7216;DHT22;3649;48.798;9.798;2023-08-08T04:52:29;16.50;99.90
7216;DHT22;3649;48.798;9.798;2023-08-08T04:54:56;16.50;99.90
7216;DHT22;3649;48.798;9.798;2023-08-08T04:57:23;16.60;99.90
7216;DHT22;3649;48.798;9.798;2023-08-08T04:59:50;16.50;99.90
7216;DHT22;3649;48.798;9.798;2023-08-08T05:02:16;16.60;99.90
7216;DHT22;3649;48.798;9.798;2023-08-08T05:04:43;16.60;99.90
7216;DHT22;3649;48.798;9.798;2023-08-08T05:07:10;16.70;99.90
7216;DHT22;3649;48.798;9.798;2023-08-08T05:09:37;16.60;99.90
7216;DHT22;3649;48.798;9.798;2023-08-08T05:12:04;16.60;99.90
7216;DHT22;3649;48.798;9.798;2023-08-08T05:14:32;16.60;99.90
7216;DHT22;3649;48.798;9.798;2023-08-08T05:16:59;16.70;99.90
7216;DHT22;3649;48.798;9.798;2023-08-08T05:19:25;16.70;99.90
7216;DHT22;3649;48.798;9.798;2023-08-08T05:21:53;16.70;99.90
7216;DHT22;3649;48.798;9.798;2023-08-08T05:24:20;16.70;99.90
7216;DHT22;3649;48.798;9.798;2023-08-08T05:26:47;16.70;99.90
7216;DHT22;3649;48.798;9.798;2023-08-08T05:29:14;16.80;99.90
7216;DHT22;3649;48.798;9.798;2023-08-08T05:31:41;16.80;99.90
7216;DHT22;3649;48.798;9.798;2023-08-08T05:34:07;16.90;99.90
7216;DHT22;3649;48.798;9.798;2023-08-08T05:36:34;17.10;99.90
7216;DHT22;3649;48.798;9.798;2023-08-08T05:39:01;17.00;99.90
7216;DHT22;3649;48.798;9.798;2023-08-08T05:41:28;17.00;99.90
7216;DHT22;3649;48.798;9.798;2023-08-08T05:43:55;17.20;99.90
7216;DHT22;3649;48.798;9.798;2023-08-08T05:46:22;17.30;99.90
7216;DHT22;3649;48.798;9.798;2023-08-08T05:48:49;17.30;99.90
7216;DHT22;3649;48.798;9.798;2023-08-08T05:51:16;17.30;99.90
7216;DHT22;3649;48.798;9.798;2023-08-08T05:53:43;17.30;99.90
7216;DHT22;3649;48.798;9.798;2023-08-08T05:56:10;17.30;99.90
7216;DHT22;3649;48.798;9.798;2023-08-08T05:58:37;17.30;99.90
7216;DHT22;3649;48.798;9.798;2023-08-08T06:01:04;17.30;99.90
7216;DHT22;3649;48.798;9.798;2023-08-08T06:03:36;17.40;99.90
7216;DHT22;3649;48.798;9.798;2023-08-08T06:06:05;17.50;99.90
7216;DHT22;3649;48.798;9.798;2023-08-08T06:08:33;17.50;99.90
7216;DHT22;3649;48.798;9.798;2023-08-08T06:10:59;17.60;99.90
7216;DHT22;3649;48.798;9.798;2023-08-08T06:13:27;17.50;99.90
7216;DHT22;3649;48.798;9.798;2023-08-08T06:15:54;17.60;99.90
7216;DHT22;3649;48.798;9.798;2023-08-08T06:18:21;17.60;99.90
7216;DHT22;3649;48.798;9.798;2023-08-08T06:20:48;17.70;99.90
7216;DHT22;3649;48.798;9.798;2023-08-08T06:23:15;17.70;99.90
7216;DHT22;3649;48.798;9.798;2023-08-08T06:25:42;17.80;99.90
7216;DHT22;3649;48.798;9.798;2023-08-08T06:28:09;17.80;99.90
7216;DHT22;3649;48.798;9.798;2023-08-08T06:30:36;17.80;99.90
7216;DHT22;3649;48.798;9.798;2023-08-08T06:33:03;17.80;99.90
7216;DHT22;3649;48.798;9.798;2023-08-08T06:35:30;18.00;99.90
7216;DHT22;3649;48.798;9.798;2023-08-08T06:37:57;18.00;99.90
7216;DHT22;3649;48.798;9.798;2023-08-08T06:40:24;18.00;99.90
7216;DHT22;3649;48.798;9.798;2023-08-08T06:42:51;18.00;99.90
7216;DHT22;3649;48.798;9.798;2023-08-08T06:45:19;18.20;99.90
7216;DHT22;3649;48.798;9.798;2023-08-08T06:47:46;18.20;99.90
7216;DHT22;3649;48.798;9.798;2023-08-08T06:50:13;18.20;99.90
7216;DHT22;3649;48.798;9.798;2023-08-08T06:52:40;18.30;99.90
7216;DHT22;3649;48.798;9.798;2023-08-08T06:55:08;18.40;99.90
7216;DHT22;3649;48.798;9.798;2023-08-08T06:57:35;18.40;99.90
7216;DHT22;3649;48.798;9.798;2023-08-08T07:00:03;18.50;99.90
7216;DHT22;3649;48.798;9.798;2023-08-08T07:02:32;18.50;99.90
7216;DHT22;3649;48.798;9.798;2023-08-08T07:05:00;18.60;99.90
7216;DHT22;3649;48.798;9.798;2023-08-08T07:07:30;18.70;99.90
7216;DHT22;3649;48.798;9.798;2023-08-08T07:09:59;17.80;99.90
7216;DHT22;3649;48.798;9.798;2023-08-08T07:12:26;19.10;99.90
7216;DHT22;3649;48.798;9.798;2023-08-08T07:14:53;19.30;99.90
7216;DHT22;3649;48.798;9.798;2023-08-08T07:17:21;19.50;99.90
7216;DHT22;3649;48.798;9.798;2023-08-08T07:19:48;19.70;99.90
7216;DHT22;3649;48.798;9.798;2023-08-08T07:22:14;19.90;99.90
7216;DHT22;3649;48.798;9.798;2023-08-08T07:24:42;20.10;99.90
7216;DHT22;3649;48.798;9.798;2023-08-08T07:27:08;20.20;99.90
7216;DHT22;3649;48.798;9.798;2023-08-08T07:29:35;20.30;99.90
7216;DHT22;3649;48.798;9.798;2023-08-08T07:32:06;20.40;99.90
7216;DHT22;3649;48.798;9.798;2023-08-08T07:34:33;20.60;99.90
7216;DHT22;3649;48.798;9.798;2023-08-08T07:37:00;20.60;99.90
7216;DHT22;3649;48.798;9.798;2023-08-08T07:39:27;20.80;99.90
7216;DHT22;3649;48.798;9.798;2023-08-08T07:41:54;20.80;99.90
7216;DHT22;3649;48.798;9.798;2023-08-08T07:44:21;20.90;99.90
7216;DHT22;3649;48.798;9.798;2023-08-08T07:46:48;20.90;99.90
7216;DHT22;3649;48.798;9.798;2023-08-08T07:49:15;20.90;99.90
7216;DHT22;3649;48.798;9.798;2023-08-08T07:51:42;21.00;99.90
7216;DHT22;3649;48.798;9.798;2023-08-08T07:54:10;21.10;99.90
7216;DHT22;3649;48.798;9.798;2023-08-08T07:56:37;21.10;99.90
7216;DHT22;3649;48.798;9.798;2023-08-08T07:59:04;21.20;99.90
7216;DHT22;3649;48.798;9.798;2023-08-08T08:01:31;21.30;99.90
7216;DHT22;3649;48.798;9.798;2023-08-08T08:03:58;21.30;99.90
7216;DHT22;3649;48.798;9.798;2023-08-08T08:06:25;21.40;99.90
7216;DHT22;3649;48.798;9.798;2023-08-08T08:08:53;21.30;99.90
7216;DHT22;3649;48.798;9.798;2023-08-08T08:11:19;21.40;99.90
7216;DHT22;3649;48.798;9.798;2023-08-08T08:13:46;21.40;99.90
7216;DHT22;3649;48.798;9.798;2023-08-08T08:16:14;21.40;99.90
7216;DHT22;3649;48.798;9.798;2023-08-08T08:18:40;21.40;99.90
7216;DHT22;3649;48.798;9.798;2023-08-08T08:21:07;21.30;99.90
7216;DHT22;3649;48.798;9.798;2023-08-08T08:23:34;21.40;99.90
7216;DHT22;3649;48.798;9.798;2023-08-08T08:26:01;21.30;99.90
7216;DHT22;3649;48.798;9.798;2023-08-08T08:28:28;21.30;99.90
7216;DHT22;3649;48.798;9.798;2023-08-08T08:30:55;21.40;99.90
7216;DHT22;3649;48.798;9.798;2023-08-08T08:33:22;21.50;99.90
7216;DHT22;3649;48.798;9.798;2023-08-08T08:35:49;21.40;99.90
7216;DHT22;3649;48.798;9.798;2023-08-08T08:38:16;21.40;99.90
7216;DHT22;3649;48.798;9.798;2023-08-08T08:40:44;21.40;99.90
7216;DHT22;3649;48.798;9.798;2023-08-08T08:43:15;21.30;99.90
7216;DHT22;3649;48.798;9.798;2023-08-08T08:45:43;21.30;99.90
7216;DHT22;3649;48.798;9.798;2023-08-08T08:48:14;21.30;99.90
7216;DHT22;3649;48.798;9.798;2023-08-08T08:50:46;21.40;99.90
7216;DHT22;3649;48.798;9.798;2023-08-08T08:53:15;21.30;99.90
7216;DHT22;3649;48.798;9.798;2023-08-08T08:55:43;21.30;99.90
7216;DHT22;3649;48.798;9.798;2023-08-08T08:58:10;21.30;99.90
7216;DHT22;3649;48.798;9.798;2023-08-08T09:00:37;21.20;99.90
7216;DHT22;3649;48.798;9.798;2023-08-08T09:03:06;21.20;99.90
7216;DHT22;3649;48.798;9.798;2023-08-08T09:05:33;21.20;99.90
7216;DHT22;3649;48.798;9.798;2023-08-08T09:08:00;21.20;99.90
7216;DHT22;3649;48.798;9.798;2023-08-08T09:10:28;21.20;99.90
7216;DHT22;3649;48.798;9.798;2023-08-08T09:12:57;21.20;99.90
7216;DHT22;3649;48.798;9.798;2023-08-08T09:15:24;21.20;99.90
7216;DHT22;3649;48.798;9.798;2023-08-08T09:17:52;21.20;99.90
7216;DHT22;3649;48.798;9.798;2023-08-08T09:20:19;21.20;99.90
7216;DHT22;3649;48.798;9.798;2023-08-08T09:22:46;21.20;99.90
7216;DHT22;3649;48.798;9.798;2023-08-08T09:25:13;21.30;99.90
7216;DHT22;3649;48.798;9.798;2023-08-08T09:27:41;21.40;99.90
7216;DHT22;3649;48.798;9.798;2023-08-08T09:30:10;21.40;99.90
7216;DHT22;3649;48.798;9.798;2023-08-08T09:32:38;21.50;99.90
7216;DHT22;3649;48.798;9.798;2023-08-08T09:35:05;21.50;99.90
7216;DHT22;3649;48.798;9.798;2023-08-08T09:37:37;21.50;99.90
7216;DHT22;3649;48.798;9.798;2023-08-08T09:40:05;21.40;99.90
7216;DHT22;3649;48.798;9.798;2023-08-08T09:42:35;21.50;99.90
7216;DHT22;3649;48.798;9.798;2023-08-08T09:45:03;21.40;99.90
7216;DHT22;3649;48.798;9.798;2023-08-08T09:47:30;21.40;99.90
7216;DHT22;3649;48.798;9.798;2023-08-08T09:50:02;21.30;99.90
7216;DHT22;3649;48.798;9.798;2023-08-08T09:52:34;21.30;99.90
7216;DHT22;3649;48.798;9.798;2023-08-08T09:55:02;21.40;99.90
7216;DHT22;3649;48.798;9.798;2023-08-08T09:57:30;21.30;99.90
7216;DHT22;3649;48.798;9.798;2023-08-08T09:59:57;21.40;99.90
7216;DHT22;3649;48.798;9.798;2023-08-08T10:02:25;21.30;99.90
7216;DHT22;3649;48.798;9.798;2023-08-08T10:04:52;21.40;99.90
7216;DHT22;3649;48.798;9.798;2023-08-08T10:07:22;21.40;99.90
7216;DHT22;3649;48.798;9.798;2023-08-08T10:09:49;21.50;99.90
7216;DHT22;3649;48.798;9.798;2023-08-08T10:12:16;21.50;99.90
7216;DHT22;3649;48.798;9.798;2023-08-08T10:14:45;21.50;99.90
7216;DHT22;3649;48.798;9.798;2023-08-08T10:17:15;21.60;99.90
7216;DHT22;3649;48.798;9.798;2023-08-08T10:19:53;21.60;99.90
7216;DHT22;3649;48.798;9.798;2023-08-08T10:22:22;21.50;99.90
7216;DHT22;3649;48.798;9.798;2023-08-08T10:24:52;21.50;99.90
7216;DHT22;3649;48.798;9.798;2023-08-08T10:27:34;21.50;99.90
7216;DHT22;3649;48.798;9.798;2023-08-08T10:30:07;21.50;99.90
7216;DHT22;3649;48.798;9.798;2023-08-08T10:32:41;21.50;99.90
7216;DHT22;3649;48.798;9.798;2023-08-08T10:35:09;21.60;99.90
7216;DHT22;3649;48.798;9.798;2023-08-08T10:37:37;21.60;99.90
7216;DHT22;3649;48.798;9.798;2023-08-08T10:40:06;21.60;99.90
7216;DHT22;3649;48.798;9.798;2023-08-08T10:42:42;21.60;99.90
7216;DHT22;3649;48.798;9.798;2023-08-08T10:45:11;21.60;99.90
7216;DHT22;3649;48.798;9.798;2023-08-08T10:47:41;21.60;99.90
7216;DHT22;3649;48.798;9.798;2023-08-08T10:50:09;21.60;99.90
7216;DHT22;3649;48.798;9.798;2023-08-08T10:52:55;21.70;99.90
7216;DHT22;3649;48.798;9.798;2023-08-08T10:55:27;21.70;99.90
7216;DHT22;3649;48.798;9.798;2023-08-08T10:58:10;21.60;99.90
7216;DHT22;3649;48.798;9.798;2023-08-08T11:00:39;21.60;99.90
7216;DHT22;3649;48.798;9.798;2023-08-08T11:03:07;21.60;99.90
7216;DHT22;3649;48.798;9.798;2023-08-08T11:05:36;21.70;99.90
7216;DHT22;3649;48.798;9.798;2023-08-08T11:08:05;21.80;99.90
7216;DHT22;3649;48.798;9.798;2023-08-08T11:10:39;21.90;99.90
7216;DHT22;3649;48.798;9.798;2023-08-08T11:13:07;22.00;99.90
7216;DHT22;3649;48.798;9.798;2023-08-08T11:15:36;22.00;99.90
7216;DHT22;3649;48.798;9.798;2023-08-08T11:18:03;22.10;99.90
7216;DHT22;3649;48.798;9.798;2023-08-08T11:20:32;22.10;99.90
7216;DHT22;3649;48.798;9.798;2023-08-08T11:23:00;22.10;99.90
7216;DHT22;3649;48.798;9.798;2023-08-08T11:25:29;22.10;99.90
7216;DHT22;3649;48.798;9.798;2023-08-08T11:27:57;22.10;99.90
7216;DHT22;3649;48.798;9.798;2023-08-08T11:30:29;22.20;99.90
7216;DHT22;3649;48.798;9.798;2023-08-08T11:32:56;22.20;99.90
7216;DHT22;3649;48.798;9.798;2023-08-08T11:35:26;22.20;99.90
7216;DHT22;3649;48.798;9.798;2023-08-08T11:37:56;22.30;99.90
7216;DHT22;3649;48.798;9.798;2023-08-08T11:40:26;22.30;99.90
7216;DHT22;3649;48.798;9.798;2023-08-08T11:42:54;22.40;99.90
7216;DHT22;3649;48.798;9.798;2023-08-08T11:45:23;22.40;99.90
7216;DHT22;3649;48.798;9.798;2023-08-08T11:47:54;22.40;99.90
7216;DHT22;3649;48.798;9.798;2023-08-08T11:50:23;22.40;99.90
7216;DHT22;3649;48.798;9.798;2023-08-08T11:52:54;22.50;99.90
7216;DHT22;3649;48.798;9.798;2023-08-08T11:55:27;22.50;99.90
7216;DHT22;3649;48.798;9.798;2023-08-08T11:57:55;22.50;99.90
7216;DHT22;3649;48.798;9.798;2023-08-08T12:00:31;22.50;99.90
7216;DHT22;3649;48.798;9.798;2023-08-08T12:03:00;22.50;99.90
7216;DHT22;3649;48.798;9.798;2023-08-08T12:05:28;22.50;99.90
7216;DHT22;3649;48.798;9.798;2023-08-08T12:07:58;22.60;99.90
7216;DHT22;3649;48.798;9.798;2023-08-08T12:10:26;22.50;99.90
7216;DHT22;3649;48.798;9.798;2023-08-08T12:12:55;22.60;99.90
7216;DHT22;3649;48.798;9.798;2023-08-08T12:15:23;22.60;99.90
7216;DHT22;3649;48.798;9.798;2023-08-08T12:17:51;22.60;99.90
7216;DHT22;3649;48.798;9.798;2023-08-08T12:20:19;22.50;99.90
7216;DHT22;3649;48.798;9.798;2023-08-08T12:22:46;22.50;99.90
7216;DHT22;3649;48.798;9.798;2023-08-08T12:25:14;22.60;99.90
7216;DHT22;3649;48.798;9.798;2023-08-08T12:27:41;22.60;99.90
7216;DHT22;3649;48.798;9.798;2023-08-08T12:30:08;23.90;99.90
7216;DHT22;3649;48.798;9.798;2023-08-08T12:32:35;22.60;99.90
7216;DHT22;3649;48.798;9.798;2023-08-08T12:35:03;22.50;99.90
7216;DHT22;3649;48.798;9.798;2023-08-08T12:37:30;22.60;99.90
7216;DHT22;3649;48.798;9.798;2023-08-08T12:39:57;22.50;99.90
7216;DHT22;3649;48.798;9.798;2023-08-08T12:42:24;22.60;99.90
7216;DHT22;3649;48.798;9.798;2023-08-08T12:44:51;22.60;99.90
7216;DHT22;3649;48.798;9.798;2023-08-08T12:47:18;22.60;99.90
7216;DHT22;3649;48.798;9.798;2023-08-08T12:49:46;22.60;99.90
7216;DHT22;3649;48.798;9.798;2023-08-08T12:52:13;22.70;99.90
7216;DHT22;3649;48.798;9.798;2023-08-08T12:54:41;22.70;99.90
7216;DHT22;3649;48.798;9.798;2023-08-08T12:57:08;22.70;99.90
7216;DHT22;3649;48.798;9.798;2023-08-08T12:59:35;22.70;99.90
7216;DHT22;3649;48.798;9.798;2023-08-08T13:02:03;22.70;99.90
7216;DHT22;3649;48.798;9.798;2023-08-08T13:04:31;22.80;99.80
7216;DHT22;3649;48.798;9.798;2023-08-08T13:06:57;22.80;99.90
7216;DHT22;3649;48.798;9.798;2023-08-08T13:09:25;22.80;99.90
7216;DHT22;3649;48.798;9.798;2023-08-08T13:11:51;22.80;99.90
7216;DHT22;3649;48.798;9.798;2023-08-08T13:14:18;22.80;99.90
7216;DHT22;3649;48.798;9.798;2023-08-08T13:16:45;22.80;99.80
7216;DHT22;3649;48.798;9.798;2023-08-08T13:19:13;22.90;99.50
7216;DHT22;3649;48.798;9.798;2023-08-08T13:21:42;22.90;99.30
7216;DHT22;3649;48.798;9.798;2023-08-08T13:24:08;22.90;99.20
7216;DHT22;3649;48.798;9.798;2023-08-08T13:26:36;22.90;99.30
7216;DHT22;3649;48.798;9.798;2023-08-08T13:29:03;22.90;99.90
7216;DHT22;3649;48.798;9.798;2023-08-08T13:31:30;23.00;98.60
7216;DHT22;3649;48.798;9.798;2023-08-08T13:33:57;23.00;99.30
7216;DHT22;3649;48.798;9.798;2023-08-08T13:36:24;23.00;99.10
7216;DHT22;3649;48.798;9.798;2023-08-08T13:38:51;23.10;98.70
7216;DHT22;3649;48.798;9.798;2023-08-08T13:41:21;23.10;98.50
7216;DHT22;3649;48.798;9.798;2023-08-08T13:43:48;23.10;98.40
7216;DHT22;3649;48.798;9.798;2023-08-08T13:46:15;23.10;99.50
7216;DHT22;3649;48.798;9.798;2023-08-08T13:48:42;23.10;98.70
7216;DHT22;3649;48.798;9.798;2023-08-08T13:51:09;23.10;99.60
7216;DHT22;3649;48.798;9.798;2023-08-08T13:53:36;23.10;99.90
7216;DHT22;3649;48.798;9.798;2023-08-08T13:56:03;23.10;99.90
7216;DHT22;3649;48.798;9.798;2023-08-08T13:58:31;23.10;99.10
7216;DHT22;3649;48.798;9.798;2023-08-08T14:00:58;23.00;98.60
7216;DHT22;3649;48.798;9.798;2023-08-08T14:03:25;23.00;98.20
7216;DHT22;3649;48.798;9.798;2023-08-08T14:05:52;23.10;98.70
7216;DHT22;3649;48.798;9.798;2023-08-08T14:08:21;23.00;98.20
7216;DHT22;3649;48.798;9.798;2023-08-08T14:10:48;23.00;99.30
7216;DHT22;3649;48.798;9.798;2023-08-08T14:13:15;22.90;99.30
7216;DHT22;3649;48.798;9.798;2023-08-08T14:15:42;22.80;99.40
7216;DHT22;3649;48.798;9.798;2023-08-08T14:18:09;22.80;99.30
7216;DHT22;3649;48.798;9.798;2023-08-08T14:20:37;22.80;99.30
7216;DHT22;3649;48.798;9.798;2023-08-08T14:23:05;22.80;99.60
7216;DHT22;3649;48.798;9.798;2023-08-08T14:25:32;22.70;99.70
7216;DHT22;3649;48.798;9.798;2023-08-08T14:27:59;22.70;99.80
7216;DHT22;3649;48.798;9.798;2023-08-08T14:30:30;22.60;99.90
7216;DHT22;3649;48.798;9.798;2023-08-08T14:32:57;22.60;99.90
7216;DHT22;3649;48.798;9.798;2023-08-08T14:35:24;22.60;99.90
7216;DHT22;3649;48.798;9.798;2023-08-08T14:37:51;22.60;99.90
7216;DHT22;3649;48.798;9.798;2023-08-08T14:40:18;22.60;99.90
7216;DHT22;3649;48.798;9.798;2023-08-08T14:42:45;22.60;99.90
7216;DHT22;3649;48.798;9.798;2023-08-08T14:45:12;22.60;99.90
7216;DHT22;3649;48.798;9.798;2023-08-08T14:47:39;22.60;99.90
7216;DHT22;3649;48.798;9.798;2023-08-08T14:50:06;22.60;99.90
7216;DHT22;3649;48.798;9.798;2023-08-08T14:52:34;22.70;99.90
7216;DHT22;3649;48.798;9.798;2023-08-08T14:55:02;22.70;99.90
7216;DHT22;3649;48.798;9.798;2023-08-08T14:57:29;22.70;99.90
7216;DHT22;3649;48.798;9.798;2023-08-08T14:59:58;22.80;99.90
7216;DHT22;3649;48.798;9.798;2023-08-08T15:02:25;22.80;99.90
7216;DHT22;3649;48.798;9.798;2023-08-08T15:04:53;22.80;99.90
7216;DHT22;3649;48.798;9.798;2023-08-08T15:07:20;22.80;99.90
7216;DHT22;3649;48.798;9.798;2023-08-08T15:09:48;22.80;99.90
7216;DHT22;3649;48.798;9.798;2023-08-08T15:12:16;22.80;99.90
7216;DHT22;3649;48.798;9.798;2023-08-08T15:14:43;22.80;99.90
7216;DHT22;3649;48.798;9.798;2023-08-08T15:17:10;22.80;99.90
7216;DHT22;3649;48.798;9.798;2023-08-08T15:19:37;22.80;99.90
7216;DHT22;3649;48.798;9.798;2023-08-08T15:22:05;22.90;99.90
7216;DHT22;3649;48.798;9.798;2023-08-08T15:24:33;22.80;99.90
7216;DHT22;3649;48.798;9.798;2023-08-08T15:27:03;22.80;99.90
7216;DHT22;3649;48.798;9.798;2023-08-08T15:29:31;22.80;99.90
7216;DHT22;3649;48.798;9.798;2023-08-08T15:31:58;22.70;99.90
7216;DHT22;3649;48.798;9.798;2023-08-08T15:34:25;22.70;99.90
7216;DHT22;3649;48.798;9.798;2023-08-08T15:36:51;22.70;99.90
7216;DHT22;3649;48.798;9.798;2023-08-08T15:39:19;22.60;99.90
7216;DHT22;3649;48.798;9.798;2023-08-08T15:41:47;22.50;99.90
7216;DHT22;3649;48.798;9.798;2023-08-08T15:44:14;22.50;99.90
7216;DHT22;3649;48.798;9.798;2023-08-08T15:46:41;22.50;99.90
7216;DHT22;3649;48.798;9.798;2023-08-08T15:49:08;22.50;99.90
7216;DHT22;3649;48.798;9.798;2023-08-08T15:51:41;22.40;99.90
7216;DHT22;3649;48.798;9.798;2023-08-08T15:54:08;22.40;99.90
7216;DHT22;3649;48.798;9.798;2023-08-08T15:56:35;22.40;99.90
7216;DHT22;3649;48.798;9.798;2023-08-08T15:59:05;22.40;99.90
7216;DHT22;3649;48.798;9.798;2023-08-08T16:01:32;22.30;99.90
7216;DHT22;3649;48.798;9.798;2023-08-08T16:03:59;22.40;99.90
7216;DHT22;3649;48.798;9.798;2023-08-08T16:06:27;22.40;99.90